sensor_id;sensor_type;location;lat;lon;timestamp;pressure;altitude;pressure_sealevel;temperature
31528;BMP280;10206;48.012;10.030;2023-02-21T00:01:56;95280.84;;;5.93
31528;BMP280;10206;48.012;10.030;2023-02-21T00:04:41;95279.38;;;5.92
31528;BMP280;10206;48.012;10.030;2023-02-21T00:07:27;95280.41;;;5.76
31528;BMP280;10206;48.012;10.030;2023-02-21T00:10:13;95285.53;;;5.80
31528;BMP280;10206;48.012;10.030;2023-02-21T00:12:58;95276.75;;;5.74
31528;BMP280;10206;48.012;10.030;2023-02-21T00:15:43;95276.75;;;5.74
31528;BMP280;10206;48.012;10.030;2023-02-21T00:18:27;95269.88;;;5.72
31528;BMP280;10206;48.012;10.030;2023-02-21T00:21:12;95272.81;;;5.75
31528;BMP280;10206;48.012;10.030;2023-02-21T00:23:56;95269.06;;;5.64
31528;BMP280;10206;48.012;10.030;2023-02-21T00:26:41;95261.66;;;5.78
31528;BMP280;10206;48.012;10.030;2023-02-21T00:29:25;95267.16;;;5.72
31528;BMP280;10206;48.012;10.030;2023-02-21T00:32:10;95252.53;;;5.68
31528;BMP280;10206;48.012;10.030;2023-02-21T00:34:54;95258.66;;;5.82
31528;BMP280;10206;48.012;10.030;2023-02-21T00:37:39;95254.50;;;5.81
31528;BMP280;10206;48.012;10.030;2023-02-21T00:40:24;95243.69;;;5.81
31528;BMP280;10206;48.012;10.030;2023-02-21T00:43:08;95243.44;;;5.79
31528;BMP280;10206;48.012;10.030;2023-02-21T00:45:53;95246.69;;;5.77
31528;BMP280;10206;48.012;10.030;2023-02-21T00:48:37;95245.31;;;5.70
31528;BMP280;10206;48.012;10.030;2023-02-21T00:51:22;95243.44;;;5.65
31528;BMP280;10206;48.012;10.030;2023-02-21T00:54:07;95245.50;;;5.59
31528;BMP280;10206;48.012;10.030;2023-02-21T00:56:51;95238.75;;;5.66
31528;BMP280;10206;48.012;10.030;2023-02-21T00:59:36;95236.66;;;5.72
31528;BMP280;10206;48.012;10.030;2023-02-21T01:02:20;95241.03;;;5.62
31528;BMP280;10206;48.012;10.030;2023-02-21T01:05:05;95241.47;;;5.66
31528;BMP280;10206;48.012;10.030;2023-02-21T01:07:50;95235.94;;;5.58
31528;BMP280;10206;48.012;10.030;2023-02-21T01:10:35;95235.06;;;5.37
31528;BMP280;10206;48.012;10.030;2023-02-21T01:13:19;95231.88;;;5.20
31528;BMP280;10206;48.012;10.030;2023-02-21T01:16:07;95231.75;;;5.13
31528;BMP280;10206;48.012;10.030;2023-02-21T01:18:52;95240.47;;;5.05
31528;BMP280;10206;48.012;10.030;2023-02-21T01:21:37;95224.78;;;5.17
31528;BMP280;10206;48.012;10.030;2023-02-21T01:24:21;95222.03;;;5.23
31528;BMP280;10206;48.012;10.030;2023-02-21T01:27:06;95226.53;;;4.83
31528;BMP280;10206;48.012;10.030;2023-02-21T01:29:51;95230.31;;;4.93
31528;BMP280;10206;48.012;10.030;2023-02-21T01:32:35;95221.78;;;4.89
31528;BMP280;10206;48.012;10.030;2023-02-21T01:35:20;95216.94;;;5.00
31528;BMP280;10206;48.012;10.030;2023-02-21T01:38:04;95213.22;;;5.03
31528;BMP280;10206;48.012;10.030;2023-02-21T01:40:49;95214.00;;;4.98
31528;BMP280;10206;48.012;10.030;2023-02-21T01:43:33;95208.84;;;5.00
31528;BMP280;10206;48.012;10.030;2023-02-21T01:46:20;95203.00;;;4.96
31528;BMP280;10206;48.012;10.030;2023-02-21T01:49:10;95200.78;;;4.95
31528;BMP280;10206;48.012;10.030;2023-02-21T01:51:57;95196.13;;;4.95
31528;BMP280;10206;48.012;10.030;2023-02-21T01:54:46;95192.63;;;5.00
31528;BMP280;10206;48.012;10.030;2023-02-21T01:57:32;95193.25;;;5.06
31528;BMP280;10206;48.012;10.030;2023-02-21T02:00:17;95196.06;;;4.82
31528;BMP280;10206;48.012;10.030;2023-02-21T02:03:07;95190.88;;;4.66
31528;BMP280;10206;48.012;10.030;2023-02-21T02:06:04;95190.84;;;4.71
31528;BMP280;10206;48.012;10.030;2023-02-21T02:08:49;95187.91;;;4.69
31528;BMP280;10206;48.012;10.030;2023-02-21T02:26:50;95174.19;;;4.67
31528;BMP280;10206;48.012;10.030;2023-02-21T02:41:17;95160.09;;;4.37
31528;BMP280;10206;48.012;10.030;2023-02-21T02:43:51;95163.97;;;4.41
31528;BMP280;10206;48.012;10.030;2023-02-21T02:46:21;95165.81;;;4.52
31528;BMP280;10206;48.012;10.030;2023-02-21T02:49:01;95161.13;;;4.34
31528;BMP280;10206;48.012;10.030;2023-02-21T02:51:28;95162.28;;;4.38
31528;BMP280;10206;48.012;10.030;2023-02-21T02:53:55;95168.13;;;4.61
31528;BMP280;10206;48.012;10.030;2023-02-21T02:56:22;95162.72;;;4.24
31528;BMP280;10206;48.012;10.030;2023-02-21T02:59:08;95156.47;;;4.34
31528;BMP280;10206;48.012;10.030;2023-02-21T03:01:51;95157.84;;;4.41
31528;BMP280;10206;48.012;10.030;2023-02-21T03:07:58;95164.03;;;4.36
31528;BMP280;10206;48.012;10.030;2023-02-21T03:13:03;95164.28;;;4.14
31528;BMP280;10206;48.012;10.030;2023-02-21T03:15:40;95154.69;;;4.18
31528;BMP280;10206;48.012;10.030;2023-02-21T03:21:11;95158.03;;;4.24
31528;BMP280;10206;48.012;10.030;2023-02-21T03:23:39;95156.34;;;4.03
31528;BMP280;10206;48.012;10.030;2023-02-21T03:26:09;95158.63;;;4.17
31528;BMP280;10206;48.012;10.030;2023-02-21T03:28:37;95163.22;;;4.04
31528;BMP280;10206;48.012;10.030;2023-02-21T03:31:04;95166.50;;;4.15
31528;BMP280;10206;48.012;10.030;2023-02-21T03:33:33;95168.19;;;4.18
31528;BMP280;10206;48.012;10.030;2023-02-21T03:36:04;95169.56;;;4.06
31528;BMP280;10206;48.012;10.030;2023-02-21T03:38:31;95164.59;;;4.10
31528;BMP280;10206;48.012;10.030;2023-02-21T03:40:57;95163.50;;;4.00
31528;BMP280;10206;48.012;10.030;2023-02-21T03:43:23;95158.72;;;4.12
31528;BMP280;10206;48.012;10.030;2023-02-21T03:45:49;95162.22;;;4.07
31528;BMP280;10206;48.012;10.030;2023-02-21T03:48:16;95162.22;;;4.07
31528;BMP280;10206;48.012;10.030;2023-02-21T03:50:42;95162.22;;;4.07
31528;BMP280;10206;48.012;10.030;2023-02-21T03:53:09;95157.38;;;4.00
31528;BMP280;10206;48.012;10.030;2023-02-21T03:55:35;95162.03;;;3.99
31528;BMP280;10206;48.012;10.030;2023-02-21T03:58:01;95161.97;;;4.05
31528;BMP280;10206;48.012;10.030;2023-02-21T04:00:27;95156.41;;;3.97
31528;BMP280;10206;48.012;10.030;2023-02-21T04:02:54;95162.63;;;3.92
31528;BMP280;10206;48.012;10.030;2023-02-21T04:05:21;95158.59;;;3.99
31528;BMP280;10206;48.012;10.030;2023-02-21T04:07:47;95160.81;;;4.00
31528;BMP280;10206;48.012;10.030;2023-02-21T04:10:13;95165.00;;;3.96
31528;BMP280;10206;48.012;10.030;2023-02-21T04:12:39;95156.28;;;3.89
31528;BMP280;10206;48.012;10.030;2023-02-21T04:15:06;95156.06;;;3.87
31528;BMP280;10206;48.012;10.030;2023-02-21T04:17:32;95163.03;;;3.96
31528;BMP280;10206;48.012;10.030;2023-02-21T04:19:58;95157.75;;;3.91
31528;BMP280;10206;48.012;10.030;2023-02-21T04:22:24;95153.47;;;3.95
31528;BMP280;10206;48.012;10.030;2023-02-21T04:24:50;95160.19;;;3.88
31528;BMP280;10206;48.012;10.030;2023-02-21T04:27:16;95155.44;;;3.95
31528;BMP280;10206;48.012;10.030;2023-02-21T04:29:43;95160.38;;;4.15
31528;BMP280;10206;48.012;10.030;2023-02-21T04:32:10;95164.16;;;4.06
31528;BMP280;10206;48.012;10.030;2023-02-21T04:34:36;95157.03;;;3.84
31528;BMP280;10206;48.012;10.030;2023-02-21T04:37:02;95158.75;;;3.87
31528;BMP280;10206;48.012;10.030;2023-02-21T04:39:28;95155.81;;;3.85
31528;BMP280;10206;48.012;10.030;2023-02-21T04:41:54;95152.56;;;3.93
31528;BMP280;10206;48.012;10.030;2023-02-21T04:44:20;95159.13;;;3.97
31528;BMP280;10206;48.012;10.030;2023-02-21T04:46:47;95148.75;;;4.01
31528;BMP280;10206;48.012;10.030;2023-02-21T04:49:13;95157.56;;;3.83
31528;BMP280;10206;48.012;10.030;2023-02-21T04:51:40;95154.31;;;3.90
31528;BMP280;10206;48.012;10.030;2023-02-21T04:54:06;95158.00;;;3.87
31528;BMP280;10206;48.012;10.030;2023-02-21T04:56:32;95160.19;;;3.88
31528;BMP280;10206;48.012;10.030;2023-02-21T04:58:58;95152.44;;;4.04
31528;BMP280;10206;48.012;10.030;2023-02-21T05:01:28;95154.59;;;3.86
31528;BMP280;10206;48.012;10.030;2023-02-21T05:03:57;95155.78;;;3.67
31528;BMP280;10206;48.012;10.030;2023-02-21T05:06:25;95150.66;;;3.63
31528;BMP280;10206;48.012;10.030;2023-02-21T05:08:51;95144.13;;;3.77
31528;BMP280;10206;48.012;10.030;2023-02-21T05:11:19;95143.59;;;3.79
31528;BMP280;10206;48.012;10.030;2023-02-21T05:13:46;95146.25;;;3.84
31528;BMP280;10206;48.012;10.030;2023-02-21T05:16:13;95139.91;;;4.01
31528;BMP280;10206;48.012;10.030;2023-02-21T05:18:41;95140.41;;;3.80
31528;BMP280;10206;48.012;10.030;2023-02-21T05:21:08;95138.59;;;3.70
31528;BMP280;10206;48.012;10.030;2023-02-21T05:23:35;95129.34;;;3.60
31528;BMP280;10206;48.012;10.030;2023-02-21T05:26:05;95134.25;;;3.61
31528;BMP280;10206;48.012;10.030;2023-02-21T05:28:32;95134.94;;;3.67
31528;BMP280;10206;48.012;10.030;2023-02-21T05:30:59;95134.88;;;3.49
31528;BMP280;10206;48.012;10.030;2023-02-21T05:33:25;95131.00;;;3.44
31528;BMP280;10206;48.012;10.030;2023-02-21T05:35:52;95131.00;;;3.44
31528;BMP280;10206;48.012;10.030;2023-02-21T05:38:20;95140.06;;;3.71
31528;BMP280;10206;48.012;10.030;2023-02-21T05:40:47;95142.63;;;3.58
31528;BMP280;10206;48.012;10.030;2023-02-21T05:43:13;95144.91;;;3.48
31528;BMP280;10206;48.012;10.030;2023-02-21T05:45:40;95146.28;;;3.60
31528;BMP280;10206;48.012;10.030;2023-02-21T05:48:06;95143.63;;;3.55
31528;BMP280;10206;48.012;10.030;2023-02-21T05:50:33;95143.97;;;3.70
31528;BMP280;10206;48.012;10.030;2023-02-21T05:52:59;95152.34;;;3.91
31528;BMP280;10206;48.012;10.030;2023-02-21T05:55:26;95144.63;;;3.76
31528;BMP280;10206;48.012;10.030;2023-02-21T05:57:53;95147.00;;;3.61
31528;BMP280;10206;48.012;10.030;2023-02-21T06:00:21;95149.47;;;3.59
31528;BMP280;10206;48.012;10.030;2023-02-21T06:02:51;95148.44;;;3.38
31528;BMP280;10206;48.012;10.030;2023-02-21T06:05:21;95151.75;;;3.49
31528;BMP280;10206;48.012;10.030;2023-02-21T06:07:48;95149.97;;;3.57
31528;BMP280;10206;48.012;10.030;2023-02-21T06:10:15;95149.06;;;3.73
31528;BMP280;10206;48.012;10.030;2023-02-21T06:12:41;95147.78;;;3.56
31528;BMP280;10206;48.012;10.030;2023-02-21T06:15:08;95150.25;;;3.54
31528;BMP280;10206;48.012;10.030;2023-02-21T06:17:39;95154.38;;;3.60
31528;BMP280;10206;48.012;10.030;2023-02-21T06:20:06;95156.53;;;3.62
31528;BMP280;10206;48.012;10.030;2023-02-21T06:22:32;95155.16;;;3.55
31528;BMP280;10206;48.012;10.030;2023-02-21T06:24:58;95148.75;;;3.58
31528;BMP280;10206;48.012;10.030;2023-02-21T06:27:25;95155.66;;;3.54
31528;BMP280;10206;48.012;10.030;2023-02-21T06:29:51;95159.41;;;3.69
31528;BMP280;10206;48.012;10.030;2023-02-21T06:32:17;95162.72;;;3.33
31528;BMP280;10206;48.012;10.030;2023-02-21T06:34:44;95161.19;;;3.37
31528;BMP280;10206;48.012;10.030;2023-02-21T06:37:10;95157.84;;;3.79
31528;BMP280;10206;48.012;10.030;2023-02-21T06:39:38;95158.28;;;3.83
31528;BMP280;10206;48.012;10.030;2023-02-21T06:42:04;95165.00;;;3.96
31528;BMP280;10206;48.012;10.030;2023-02-21T06:44:31;95168.34;;;4.26
31528;BMP280;10206;48.012;10.030;2023-02-21T06:46:57;95163.59;;;4.69
31528;BMP280;10206;48.012;10.030;2023-02-21T06:49:23;95166.25;;;4.88
31528;BMP280;10206;48.012;10.030;2023-02-21T06:51:49;95169.53;;;4.99
31528;BMP280;10206;48.012;10.030;2023-02-21T06:54:15;95170.66;;;5.23
31528;BMP280;10206;48.012;10.030;2023-02-21T06:56:42;95178.78;;;5.36
31528;BMP280;10206;48.012;10.030;2023-02-21T06:59:09;95180.53;;;5.46
31528;BMP280;10206;48.012;10.030;2023-02-21T07:01:35;95176.19;;;5.56
31528;BMP280;10206;48.012;10.030;2023-02-21T07:04:02;95178.41;;;5.84
31528;BMP280;10206;48.012;10.030;2023-02-21T07:06:28;95180.69;;;5.93
31528;BMP280;10206;48.012;10.030;2023-02-21T07:08:54;95177.34;;;6.13
31528;BMP280;10206;48.012;10.030;2023-02-21T07:11:20;95183.16;;;6.17
31528;BMP280;10206;48.012;10.030;2023-02-21T07:13:50;95182.06;;;6.47
31528;BMP280;10206;48.012;10.030;2023-02-21T07:16:18;95182.44;;;6.64
31528;BMP280;10206;48.012;10.030;2023-02-21T07:18:44;95178.44;;;6.78
31528;BMP280;10206;48.012;10.030;2023-02-21T07:21:12;95180.47;;;6.85
31528;BMP280;10206;48.012;10.030;2023-02-21T07:23:38;95183.31;;;6.79
31528;BMP280;10206;48.012;10.030;2023-02-21T07:26:04;95181.41;;;6.87
31528;BMP280;10206;48.012;10.030;2023-02-21T07:28:31;95179.34;;;7.01
31528;BMP280;10206;48.012;10.030;2023-02-21T07:30:57;95179.09;;;7.12
31528;BMP280;10206;48.012;10.030;2023-02-21T07:33:23;95180.13;;;7.30
31528;BMP280;10206;48.012;10.030;2023-02-21T07:35:49;95184.66;;;7.55
31528;BMP280;10206;48.012;10.030;2023-02-21T07:38:22;95190.28;;;7.57
31528;BMP280;10206;48.012;10.030;2023-02-21T07:40:49;95172.78;;;7.66
31528;BMP280;10206;48.012;10.030;2023-02-21T07:43:15;95177.09;;;7.90
31528;BMP280;10206;48.012;10.030;2023-02-21T07:45:42;95177.22;;;8.20
31528;BMP280;10206;48.012;10.030;2023-02-21T07:48:08;95180.22;;;8.52
31528;BMP280;10206;48.012;10.030;2023-02-21T07:50:34;95172.25;;;8.62
31528;BMP280;10206;48.012;10.030;2023-02-21T07:53:00;95172.47;;;8.79
31528;BMP280;10206;48.012;10.030;2023-02-21T07:55:26;95179.41;;;9.03
31528;BMP280;10206;48.012;10.030;2023-02-21T07:57:52;95172.50;;;9.09
31528;BMP280;10206;48.012;10.030;2023-02-21T08:00:18;95164.66;;;9.58
31528;BMP280;10206;48.012;10.030;2023-02-21T08:02:48;95173.47;;;9.89
31528;BMP280;10206;48.012;10.030;2023-02-21T08:05:15;95173.66;;;9.91
31528;BMP280;10206;48.012;10.030;2023-02-21T08:07:41;95173.75;;;10.16
31528;BMP280;10206;48.012;10.030;2023-02-21T08:10:08;95174.09;;;10.20
31528;BMP280;10206;48.012;10.030;2023-02-21T08:12:34;95175.16;;;10.24
31528;BMP280;10206;48.012;10.030;2023-02-21T08:15:02;95178.00;;;10.74
31528;BMP280;10206;48.012;10.030;2023-02-21T08:17:29;95177.34;;;10.90
31528;BMP280;10206;48.012;10.030;2023-02-21T08:19:55;95171.63;;;11.21
31528;BMP280;10206;48.012;10.030;2023-02-21T08:22:21;95177.84;;;11.38
31528;BMP280;10206;48.012;10.030;2023-02-21T08:24:51;95168.25;;;11.47
31528;BMP280;10206;48.012;10.030;2023-02-21T08:27:17;95171.97;;;11.76
31528;BMP280;10206;48.012;10.030;2023-02-21T08:29:44;95172.88;;;11.96
31528;BMP280;10206;48.012;10.030;2023-02-21T08:32:10;95168.00;;;12.04
31528;BMP280;10206;48.012;10.030;2023-02-21T08:34:36;95173.19;;;12.26
31528;BMP280;10206;48.012;10.030;2023-02-21T08:37:02;95167.41;;;12.49
31528;BMP280;10206;48.012;10.030;2023-02-21T08:39:39;95165.91;;;12.65
31528;BMP280;10206;48.012;10.030;2023-02-21T08:42:05;95170.78;;;12.93
31528;BMP280;10206;48.012;10.030;2023-02-21T08:44:31;95162.34;;;13.18
31528;BMP280;10206;48.012;10.030;2023-02-21T08:46:57;95155.25;;;13.05
31528;BMP280;10206;48.012;10.030;2023-02-21T08:49:23;95156.66;;;12.61
31528;BMP280;10206;48.012;10.030;2023-02-21T08:51:49;95158.25;;;13.00
31528;BMP280;10206;48.012;10.030;2023-02-21T08:54:15;95160.28;;;12.63
31528;BMP280;10206;48.012;10.030;2023-02-21T08:56:41;95153.75;;;12.85
31528;BMP280;10206;48.012;10.030;2023-02-21T08:59:07;95152.06;;;12.99
31528;BMP280;10206;48.012;10.030;2023-02-21T09:01:35;95160.41;;;13.01
31528;BMP280;10206;48.012;10.030;2023-02-21T09:04:02;95149.38;;;13.18
31528;BMP280;10206;48.012;10.030;2023-02-21T09:06:29;95147.38;;;13.38
31528;BMP280;10206;48.012;10.030;2023-02-21T09:08:55;95147.94;;;13.65
31528;BMP280;10206;48.012;10.030;2023-02-21T09:11:21;95147.22;;;14.03
31528;BMP280;10206;48.012;10.030;2023-02-21T09:13:47;95144.56;;;14.24
31528;BMP280;10206;48.012;10.030;2023-02-21T09:16:14;95140.44;;;14.44
31528;BMP280;10206;48.012;10.030;2023-02-21T09:18:40;95138.38;;;14.04
31528;BMP280;10206;48.012;10.030;2023-02-21T09:21:06;95139.00;;;14.43
31528;BMP280;10206;48.012;10.030;2023-02-21T09:23:32;95144.84;;;14.28
31528;BMP280;10206;48.012;10.030;2023-02-21T09:25:58;95145.09;;;14.32
31528;BMP280;10206;48.012;10.030;2023-02-21T09:28:24;95148.28;;;14.38
31528;BMP280;10206;48.012;10.030;2023-02-21T09:30:50;95146.81;;;14.37
31528;BMP280;10206;48.012;10.030;2023-02-21T09:33:17;95149.47;;;14.16
31528;BMP280;10206;48.012;10.030;2023-02-21T09:35:43;95157.31;;;14.60
31528;BMP280;10206;48.012;10.030;2023-02-21T09:38:09;95147.56;;;14.68
31528;BMP280;10206;48.012;10.030;2023-02-21T09:40:40;95152.91;;;14.97
31528;BMP280;10206;48.012;10.030;2023-02-21T09:43:15;95158.22;;;15.05
31528;BMP280;10206;48.012;10.030;2023-02-21T09:45:43;95156.63;;;14.40
31528;BMP280;10206;48.012;10.030;2023-02-21T09:48:17;95152.91;;;14.76
31528;BMP280;10206;48.012;10.030;2023-02-21T09:50:51;95155.03;;;14.77
31528;BMP280;10206;48.012;10.030;2023-02-21T09:53:34;95156.66;;;15.02
31528;BMP280;10206;48.012;10.030;2023-02-21T09:58:50;95159.53;;;15.46
31528;BMP280;10206;48.012;10.030;2023-02-21T10:10:10;95151.53;;;16.27
31528;BMP280;10206;48.012;10.030;2023-02-21T10:12:58;95147.81;;;16.22
31528;BMP280;10206;48.012;10.030;2023-02-21T10:15:46;95152.69;;;16.01
31528;BMP280;10206;48.012;10.030;2023-02-21T10:21:00;95147.53;;;15.95
31528;BMP280;10206;48.012;10.030;2023-02-21T10:23:40;95153.53;;;15.70
31528;BMP280;10206;48.012;10.030;2023-02-21T10:26:10;95152.28;;;15.83
31528;BMP280;10206;48.012;10.030;2023-02-21T10:28:37;95152.63;;;16.22
31528;BMP280;10206;48.012;10.030;2023-02-21T10:31:29;95146.19;;;16.40
31528;BMP280;10206;48.012;10.030;2023-02-21T10:33:57;95147.13;;;16.91
31528;BMP280;10206;48.012;10.030;2023-02-21T10:36:26;95145.56;;;16.77
31528;BMP280;10206;48.012;10.030;2023-02-21T10:39:16;95149.03;;;17.12
31528;BMP280;10206;48.012;10.030;2023-02-21T10:41:44;95149.19;;;17.27
31528;BMP280;10206;48.012;10.030;2023-02-21T10:47:44;95144.88;;;17.61
31528;BMP280;10206;48.012;10.030;2023-02-21T10:50:02;95150.19;;;17.82
31528;BMP280;10206;48.012;10.030;2023-02-21T10:52:28;95144.09;;;17.97
31528;BMP280;10206;48.012;10.030;2023-02-21T10:57:42;95145.97;;;17.56
31528;BMP280;10206;48.012;10.030;2023-02-21T11:00:18;95129.16;;;17.27
31528;BMP280;10206;48.012;10.030;2023-02-21T11:02:45;95135.56;;;18.32
31528;BMP280;10206;48.012;10.030;2023-02-21T11:05:22;95131.97;;;18.16
31528;BMP280;10206;48.012;10.030;2023-02-21T11:08:01;95130.69;;;18.44
31528;BMP280;10206;48.012;10.030;2023-02-21T11:10:40;95130.78;;;18.60
31528;BMP280;10206;48.012;10.030;2023-02-21T11:13:17;95121.69;;;18.57
31528;BMP280;10206;48.012;10.030;2023-02-21T11:15:45;95125.16;;;18.58
31528;BMP280;10206;48.012;10.030;2023-02-21T11:20:37;95112.94;;;19.17
31528;BMP280;10206;48.012;10.030;2023-02-21T11:23:03;95112.47;;;19.22
31528;BMP280;10206;48.012;10.030;2023-02-21T11:25:37;95113.53;;;18.73
31528;BMP280;10206;48.012;10.030;2023-02-21T11:31:03;95099.66;;;19.00
31528;BMP280;10206;48.012;10.030;2023-02-21T11:33:30;95095.78;;;18.37
31528;BMP280;10206;48.012;10.030;2023-02-21T11:36:16;95092.41;;;18.38
31528;BMP280;10206;48.012;10.030;2023-02-21T11:41:32;95093.94;;;18.41
31528;BMP280;10206;48.012;10.030;2023-02-21T11:44:00;95083.31;;;18.36
31528;BMP280;10206;48.012;10.030;2023-02-21T11:46:39;95088.09;;;19.19
31528;BMP280;10206;48.012;10.030;2023-02-21T11:49:10;95079.44;;;19.40
31528;BMP280;10206;48.012;10.030;2023-02-21T11:51:49;95086.13;;;19.35
31528;BMP280;10206;48.012;10.030;2023-02-21T11:54:19;95075.69;;;19.49
31528;BMP280;10206;48.012;10.030;2023-02-21T12:03:03;95058.66;;;19.39
31528;BMP280;10206;48.012;10.030;2023-02-21T12:05:52;95047.44;;;19.66
31528;BMP280;10206;48.012;10.030;2023-02-21T12:17:02;95031.09;;;19.72
31528;BMP280;10206;48.012;10.030;2023-02-21T12:39:15;94995.13;;;20.54
31528;BMP280;10206;48.012;10.030;2023-02-21T12:42:05;94988.78;;;20.69
31528;BMP280;10206;48.012;10.030;2023-02-21T12:47:19;94985.25;;;20.67
31528;BMP280;10206;48.012;10.030;2023-02-21T12:49:53;94974.47;;;20.75
31528;BMP280;10206;48.012;10.030;2023-02-21T12:52:37;94974.75;;;20.48
31528;BMP280;10206;48.012;10.030;2023-02-21T13:00:34;94964.41;;;20.66
31528;BMP280;10206;48.012;10.030;2023-02-21T13:05:59;94955.66;;;21.26
31528;BMP280;10206;48.012;10.030;2023-02-21T13:11:35;94943.91;;;21.47
31528;BMP280;10206;48.012;10.030;2023-02-21T13:14:03;94939.88;;;21.13
31528;BMP280;10206;48.012;10.030;2023-02-21T13:16:34;94931.50;;;21.11
31528;BMP280;10206;48.012;10.030;2023-02-21T13:19:03;94924.78;;;20.81
31528;BMP280;10206;48.012;10.030;2023-02-21T13:24:03;94914.94;;;20.07
31528;BMP280;10206;48.012;10.030;2023-02-21T13:29:19;94910.16;;;19.77
31528;BMP280;10206;48.012;10.030;2023-02-21T13:31:46;94899.81;;;19.77
31528;BMP280;10206;48.012;10.030;2023-02-21T13:34:18;94892.25;;;19.95
31528;BMP280;10206;48.012;10.030;2023-02-21T13:36:48;94895.59;;;19.92
31528;BMP280;10206;48.012;10.030;2023-02-21T13:39:27;94884.66;;;19.78
31528;BMP280;10206;48.012;10.030;2023-02-21T13:42:19;94886.50;;;19.74
31528;BMP280;10206;48.012;10.030;2023-02-21T13:44:53;94881.75;;;19.76
31528;BMP280;10206;48.012;10.030;2023-02-21T13:47:21;94880.25;;;19.73
31528;BMP280;10206;48.012;10.030;2023-02-21T13:49:52;94873.44;;;19.43
31528;BMP280;10206;48.012;10.030;2023-02-21T13:52:51;94861.22;;;19.32
31528;BMP280;10206;48.012;10.030;2023-02-21T13:55:22;94862.81;;;19.06
31528;BMP280;10206;48.012;10.030;2023-02-21T14:08:20;94839.44;;;19.25
31528;BMP280;10206;48.012;10.030;2023-02-21T14:10:49;94842.00;;;19.05
31528;BMP280;10206;48.012;10.030;2023-02-21T14:15:55;94835.19;;;18.91
31528;BMP280;10206;48.012;10.030;2023-02-21T14:18:26;94833.78;;;18.61
31528;BMP280;10206;48.012;10.030;2023-02-21T14:20:55;94826.03;;;18.28
31528;BMP280;10206;48.012;10.030;2023-02-21T14:23:29;94827.88;;;17.81
31528;BMP280;10206;48.012;10.030;2023-02-21T14:25:59;94823.66;;;18.36
31528;BMP280;10206;48.012;10.030;2023-02-21T14:28:48;94822.81;;;18.47
31528;BMP280;10206;48.012;10.030;2023-02-21T14:34:11;94814.19;;;18.25
31528;BMP280;10206;48.012;10.030;2023-02-21T14:36:39;94810.00;;;18.24
31528;BMP280;10206;48.012;10.030;2023-02-21T14:39:07;94820.03;;;18.18
31528;BMP280;10206;48.012;10.030;2023-02-21T14:54:00;94790.59;;;17.80
31528;BMP280;10206;48.012;10.030;2023-02-21T15:02:24;94781.63;;;17.38
31528;BMP280;10206;48.012;10.030;2023-02-21T15:10:31;94781.75;;;17.13
31528;BMP280;10206;48.012;10.030;2023-02-21T15:13:03;94779.06;;;16.88
31528;BMP280;10206;48.012;10.030;2023-02-21T15:15:39;94780.69;;;17.47
31528;BMP280;10206;48.012;10.030;2023-02-21T15:18:08;94774.56;;;16.81
31528;BMP280;10206;48.012;10.030;2023-02-21T15:20:38;94772.16;;;16.62
31528;BMP280;10206;48.012;10.030;2023-02-21T15:25:39;94772.63;;;16.97
31528;BMP280;10206;48.012;10.030;2023-02-21T15:28:17;94768.38;;;17.08
31528;BMP280;10206;48.012;10.030;2023-02-21T15:31:01;94756.88;;;16.59
31528;BMP280;10206;48.012;10.030;2023-02-21T15:33:31;94761.78;;;16.61
31528;BMP280;10206;48.012;10.030;2023-02-21T15:36:05;94763.00;;;16.07
31528;BMP280;10206;48.012;10.030;2023-02-21T15:38:38;94753.94;;;15.93
31528;BMP280;10206;48.012;10.030;2023-02-21T15:46:24;94753.81;;;15.54
31528;BMP280;10206;48.012;10.030;2023-02-21T15:48:54;94765.69;;;15.34
31528;BMP280;10206;48.012;10.030;2023-02-21T15:51:21;94760.41;;;15.49
31528;BMP280;10206;48.012;10.030;2023-02-21T15:54:07;94769.47;;;15.63
31528;BMP280;10206;48.012;10.030;2023-02-21T15:56:34;94769.97;;;15.60
31528;BMP280;10206;48.012;10.030;2023-02-21T15:59:18;94763.78;;;15.48
31528;BMP280;10206;48.012;10.030;2023-02-21T16:01:45;94761.03;;;15.48
31528;BMP280;10206;48.012;10.030;2023-02-21T16:04:36;94751.47;;;15.26
31528;BMP280;10206;48.012;10.030;2023-02-21T16:07:05;94754.59;;;15.09
31528;BMP280;10206;48.012;10.030;2023-02-21T16:09:33;94753.88;;;15.08
31528;BMP280;10206;48.012;10.030;2023-02-21T16:12:54;94748.75;;;15.03
31528;BMP280;10206;48.012;10.030;2023-02-21T16:17:44;94739.72;;;14.56
31528;BMP280;10206;48.012;10.030;2023-02-21T16:22:41;94738.13;;;14.30
31528;BMP280;10206;48.012;10.030;2023-02-21T16:25:15;94742.88;;;14.29
31528;BMP280;10206;48.012;10.030;2023-02-21T16:27:44;94737.47;;;14.20
31528;BMP280;10206;48.012;10.030;2023-02-21T16:30:21;94744.50;;;14.11
31528;BMP280;10206;48.012;10.030;2023-02-21T16:32:48;94737.59;;;13.89
31528;BMP280;10206;48.012;10.030;2023-02-21T16:35:18;94742.78;;;13.73
31528;BMP280;10206;48.012;10.030;2023-02-21T16:37:47;94746.94;;;13.53
31528;BMP280;10206;48.012;10.030;2023-02-21T16:40:17;94730.22;;;13.28
31528;BMP280;10206;48.012;10.030;2023-02-21T16:42:47;94737.22;;;13.10
31528;BMP280;10206;48.012;10.030;2023-02-21T16:45:13;94741.75;;;12.96
31528;BMP280;10206;48.012;10.030;2023-02-21T16:47:39;94738.63;;;12.90
31528;BMP280;10206;48.012;10.030;2023-02-21T16:50:19;94743.97;;;12.78
31528;BMP280;10206;48.012;10.030;2023-02-21T16:52:46;94739.09;;;12.77
31528;BMP280;10206;48.012;10.030;2023-02-21T16:55:17;94736.22;;;12.65
31528;BMP280;10206;48.012;10.030;2023-02-21T16:57:56;94732.97;;;12.47
31528;BMP280;10206;48.012;10.030;2023-02-21T17:00:24;94739.44;;;12.33
31528;BMP280;10206;48.012;10.030;2023-02-21T17:02:51;94742.38;;;12.16
31528;BMP280;10206;48.012;10.030;2023-02-21T17:05:18;94739.47;;;12.04
31528;BMP280;10206;48.012;10.030;2023-02-21T17:07:50;94741.06;;;11.98
31528;BMP280;10206;48.012;10.030;2023-02-21T17:10:21;94741.06;;;11.88
31528;BMP280;10206;48.012;10.030;2023-02-21T17:12:47;94742.34;;;11.68
31528;BMP280;10206;48.012;10.030;2023-02-21T17:15:13;94739.72;;;11.51
31528;BMP280;10206;48.012;10.030;2023-02-21T17:17:40;94749.19;;;11.40
31528;BMP280;10206;48.012;10.030;2023-02-21T17:20:07;94745.13;;;11.22
31528;BMP280;10206;48.012;10.030;2023-02-21T17:22:39;94753.28;;;11.13